Nearby METAR Reports

 

KGRB - Ashwaubenon, Wisconsin, USA
Distance from station: NW 5mi, 8km
Updated: Thu, 17-Aug-2017 11:53am CDT
Light rain, Mostly cloudy
Light rain, Mostly cloudy
 Wind from SW
Wind: SW 8 mph , 13 km/h
Temperature: 73°F , 23°C
Dew Point: 70°F , 21°C
Humidity: 89%
Barometer: 29.62 inHg , 1003 hPa
Summary: Light rain
Clouds: Mostly cloudy
Visibility: 10 miles , 16 km
Cloud details: Few Clouds 2800 ft
Partly cloudy 3800 ft
Mostly cloudy 6000 ft
2017/08/17 16:53 KGRB 171653Z 22007KT 10SM -RA FEW028 SCT038 BKN060 23/21 A2962 RMK AO2 RAB41 SLP028 P0000 T02330211
KATW - Appleton/Outagam, Wisconsin, USA
Distance from station: WSW 26mi, 42km
Updated: Thu, 17-Aug-2017 11:45am CDT
Mostly cloudy
Mostly cloudy
 Wind from SW
Wind: SW 15 mph , 24 km/h
Temperature: 75°F , 24°C
Dew Point: 63°F , 17°C
Humidity: 65%
Barometer: 29.63 inHg , 1003.4 hPa
Clouds: Mostly cloudy
Visibility: 10 miles , 16 km
Cloud details: Partly cloudy 4000 ft
Mostly cloudy 6500 ft
2017/08/17 16:45 KATW 171645Z 22013KT 10SM SCT040 BKN065 24/17 A2963
 
KMTW - Manitowac Muni, Wisconsin, USA
Distance from station: SE 29mi, 47km
Updated: Thu, 17-Aug-2017 11:56am CDT
Mostly cloudy
Mostly cloudy
 Wind from SSE
Wind: SSE 15 mph , 24 km/h
Temperature: 79°F , 26°C
Dew Point: 72°F , 22°C
Humidity: 79%
Barometer: 29.65 inHg , 1004.1 hPa
Clouds: Mostly cloudy
Visibility: 10 miles , 16 km
Cloud details: Partly cloudy 2700 ft
Partly cloudy 3600 ft
Mostly cloudy 4900 ft
2017/08/17 16:56 KMTW 171656Z AUTO 16013KT 10SM SCT027 SCT036 BKN049 26/22 A2965 RMK AO2 SLP051 T02610217
KOCQ - Oconto, Wisconsin, USA
Distance from station: NNE 30mi, 49km
Updated: Thu, 17-Aug-2017 12:15pm CDT
Overcast
Overcast
 Wind from WSW
Wind: WSW 10 mph , 17 km/h, Gust: 23 mph , 37 km/h
Temperature: 73°F , 23°C
Dew Point: 68°F , 20°C
Humidity: 83%
Barometer: 29.60 inHg , 1002.4 hPa
Clouds: Overcast
Visibility: 10 miles , 16 km
Cloud details: Partly cloudy 2500 ft
Mostly cloudy 3200 ft
Overcast 6000 ft
2017/08/17 17:15 KOCQ 171715Z AUTO 24009G20KT 10SM SCT025 BKN032 OVC060 23/20 A2960 RMK AO1 T02260201
 
KEZS - Shawano Muni, Wisconsin, USA
Distance from station: NW 35mi, 56km
Updated: Thu, 17-Aug-2017 12:15pm CDT
Mostly cloudy
Mostly cloudy
 Wind from SSW
Wind: SSW 10 mph , 17 km/h, Gust: 22 mph , 35 km/h
Temperature: 79°F , 26°C
Dew Point: 64°F , 18°C
Humidity: 61%
Barometer: 29.61 inHg , 1002.7 hPa
Clouds: Mostly cloudy
Visibility: 10 miles , 16 km
Cloud details: Partly cloudy 2700 ft
Partly cloudy 5000 ft
Mostly cloudy 6500 ft
2017/08/17 17:15 KEZS 171715Z AUTO 21009G19KT 150V230 10SM SCT027 SCT050 BKN065 26/18 A2961 RMK AO2 T02570180
KCLI - Clintonville, Wisconsin, USA
Distance from station: WNW 36mi, 58km
Updated: Thu, 17-Aug-2017 12:15pm CDT
Overcast
Overcast
 Wind from SW
Wind: SW 16 mph , 26 km/h, Gust: 20 mph , 31 km/h
Temperature: 75°F , 24°C
Dew Point: 63°F , 17°C
Humidity: 65%
Barometer: 29.61 inHg , 1002.7 hPa
Clouds: Overcast
Visibility: 10 miles , 16 km
Cloud details: Partly cloudy 2900 ft
Mostly cloudy 3600 ft
Overcast 7000 ft
2017/08/17 17:15 KCLI 171715Z AUTO 23014G17KT 10SM SCT029 BKN036 OVC070 24/17 A2961 RMK AO2
 
KOSH - Oshkosh, Wisconsin, USA
Distance from station: SW 41mi, 66km
Updated: Thu, 17-Aug-2017 11:53am CDT
Mostly cloudy
Mostly cloudy
 Wind from SSW
Wind: SSW 18 mph , 30 km/h, Gust: 23 mph , 37 km/h
Temperature: 79°F , 26°C
Dew Point: 64°F , 18°C
Humidity: 61%
Barometer: 29.64 inHg , 1003.7 hPa
Clouds: Mostly cloudy
Visibility: 10 miles , 16 km
Cloud details: Few Clouds 3100 ft
Mostly cloudy 6000 ft
2017/08/17 16:53 KOSH 171653Z 21016G20KT 10SM FEW031 BKN060 26/18 A2964 RMK AO2 SLP023 T02560183
KSUE - Sturgeon Bay, Wisconsin, USA
Distance from station: NE 42mi, 68km
Updated: Thu, 17-Aug-2017 12:19pm CDT
Mostly cloudy
Mostly cloudy
 Wind from SSE
Wind: SSE 17 mph , 28 km/h, Gust: 23 mph , 37 km/h
Temperature: 75°F , 24°C
Dew Point: 72°F , 22°C
Humidity: 89%
Barometer: 29.61 inHg , 1002.7 hPa
Clouds: Mostly cloudy
Visibility: 10 miles , 16 km
Cloud details: Mostly cloudy 1100 ft
2017/08/17 17:19 KSUE 171719Z AUTO 16015G20KT 10SM BKN011 24/22 A2961 RMK AO2
 
KSBM - Sheboygan, Wisconsin, USA
Distance from station: SSE 46mi, 75km
Updated: Thu, 17-Aug-2017 11:53am CDT
Mostly cloudy
Mostly cloudy
 Wind from SSW
Wind: SSW 16 mph , 26 km/h, Gust: 25 mph , 41 km/h
Temperature: 79°F , 26°C
Dew Point: 70°F , 21°C
Humidity: 74%
Barometer: 29.66 inHg , 1004.4 hPa
Clouds: Mostly cloudy
Visibility: 10 miles , 16 km
Cloud details: Mostly cloudy 7000 ft
2017/08/17 16:53 KSBM 171653Z AUTO 20014G22KT 10SM BKN070 26/21 A2966 RMK AO2 SLP038 T02610211
KPCZ - Waupaca, Wisconsin, USA
Distance from station: W 48mi, 77km
Updated: Thu, 17-Aug-2017 12:15pm CDT
Mostly cloudy
Mostly cloudy
 Wind from S
Wind: S 15 mph , 24 km/h, Gust: 24 mph , 39 km/h
Temperature: 75°F , 24°C
Dew Point: 66°F , 19°C
Humidity: 74%
Barometer: 29.62 inHg , 1003 hPa
Clouds: Mostly cloudy
Visibility: 10 miles , 16 km
Cloud details: Partly cloudy 2200 ft
Partly cloudy 2700 ft
Mostly cloudy 5000 ft
2017/08/17 17:15 KPCZ 171715Z AUTO 19013G21KT 10SM SCT022 SCT027 BKN050 24/19 A2962 RMK AO2 T02420192